Portada
METAR-TAF:

METAR-TAF

Aeroports :

Pago Pago, Illes Perifèriques Menors dels EUA

latitud: 14-20S, longitud: 170-43W, altitud: 3 m

Observació

L'informe es va fer fa 17 minuts, a les 07:51 UTC
Vent 9 kt del Est/Sud-Est
Temperatura 29°C
Humitat 79%
Pressió 1011 hPa
Visibilitat: 16.1 km
Escasses núvols a una alçada de 2100 ft
Núvols disperses a una alçada de 12000 ft
Cel ennuvolat a una alçada de 24000 ft

METAR: NSTU 180751Z 12009KT 10SM FEW021 SCT120 BKN240 29/25 A2984 RMK SLP107 T02850251

Hora: 21:08 (08:08 UTC)

Pronòstic

L'informe es va fer fa 2 hores i 42 minuts, a les 05:26 UTC
Pronòstic vàlid del 18 a les 06 UTC al 19 a les 06 UTC
Vent 10 kt del Est
Visibilitat: 10 km
Núvols disperses a una alçada de 2000 ft
Núvols disperses a una alçada de 5000 ft
xàfecs en les proximitats

TAF: NSTU 180526Z 1806/1906 09010KT P6SM VCSH SCT020 SCT050

Observacions i pronòstics meteorològics de més de 4000 aeroports (METAR i TAF).

Les estacions disponibles són els punts grocs i vermells al mapa.

Posi el ratolí al punt desitjat per veure el nom de l'estació.

Feu clic per veure les observacions i els pronòstics meteorològics.

Per canviar el mapa: feu clic els botons verds amb una creu de color negre per apropar; al botó verd amb un guió per allunyar la imatge; o en les fletxes verdes per a mapes adjacents.


METAR-TAF: